sensor_id;sensor_type;location;lat;lon;timestamp;P1;durP1;ratioP1;P2;durP2;ratioP2
68744;SDS011;66104;45.456;11.064;2023-02-08T00:01:16;7.50;;;4.30;;
68744;SDS011;66104;45.456;11.064;2023-02-08T00:03:51;7.30;;;3.90;;
68744;SDS011;66104;45.456;11.064;2023-02-08T00:06:25;11.40;;;4.70;;
68744;SDS011;66104;45.456;11.064;2023-02-08T00:08:58;7.60;;;4.60;;
68744;SDS011;66104;45.456;11.064;2023-02-08T00:11:32;10.70;;;5.60;;
68744;SDS011;66104;45.456;11.064;2023-02-08T00:14:06;8.90;;;4.60;;
68744;SDS011;66104;45.456;11.064;2023-02-08T00:16:40;7.30;;;4.40;;
68744;SDS011;66104;45.456;11.064;2023-02-08T00:19:13;7.40;;;4.50;;
68744;SDS011;66104;45.456;11.064;2023-02-08T00:21:47;7.70;;;4.50;;
68744;SDS011;66104;45.456;11.064;2023-02-08T00:24:21;7.10;;;4.40;;
68744;SDS011;66104;45.456;11.064;2023-02-08T00:26:54;6.20;;;3.60;;
68744;SDS011;66104;45.456;11.064;2023-02-08T00:29:28;8.30;;;3.80;;
68744;SDS011;66104;45.456;11.064;2023-02-08T00:32:01;5.50;;;3.20;;
68744;SDS011;66104;45.456;11.064;2023-02-08T00:34:36;6.10;;;3.50;;
68744;SDS011;66104;45.456;11.064;2023-02-08T00:37:11;6.80;;;3.80;;
68744;SDS011;66104;45.456;11.064;2023-02-08T00:39:44;6.60;;;3.80;;
68744;SDS011;66104;45.456;11.064;2023-02-08T00:42:18;6.00;;;3.30;;
68744;SDS011;66104;45.456;11.064;2023-02-08T00:44:51;5.30;;;3.20;;
68744;SDS011;66104;45.456;11.064;2023-02-08T00:47:25;6.20;;;4.10;;
68744;SDS011;66104;45.456;11.064;2023-02-08T00:49:58;8.60;;;4.90;;
68744;SDS011;66104;45.456;11.064;2023-02-08T00:52:30;8.20;;;4.90;;
68744;SDS011;66104;45.456;11.064;2023-02-08T00:55:04;9.70;;;5.50;;
68744;SDS011;66104;45.456;11.064;2023-02-08T00:57:38;8.50;;;4.70;;
68744;SDS011;66104;45.456;11.064;2023-02-08T01:02:50;9.00;;;5.40;;
68744;SDS011;66104;45.456;11.064;2023-02-08T01:05:23;10.90;;;6.80;;
68744;SDS011;66104;45.456;11.064;2023-02-08T01:07:57;10.10;;;5.60;;
68744;SDS011;66104;45.456;11.064;2023-02-08T01:10:32;8.40;;;4.10;;
68744;SDS011;66104;45.456;11.064;2023-02-08T01:13:05;9.30;;;4.90;;
68744;SDS011;66104;45.456;11.064;2023-02-08T01:15:38;7.60;;;4.50;;
68744;SDS011;66104;45.456;11.064;2023-02-08T01:18:11;7.40;;;4.00;;
68744;SDS011;66104;45.456;11.064;2023-02-08T01:20:44;8.10;;;4.40;;
68744;SDS011;66104;45.456;11.064;2023-02-08T01:23:18;7.90;;;4.50;;
68744;SDS011;66104;45.456;11.064;2023-02-08T01:25:52;8.50;;;4.90;;
68744;SDS011;66104;45.456;11.064;2023-02-08T01:28:25;9.70;;;5.10;;
68744;SDS011;66104;45.456;11.064;2023-02-08T01:30:58;11.90;;;5.80;;
68744;SDS011;66104;45.456;11.064;2023-02-08T01:33:34;11.10;;;5.70;;
68744;SDS011;66104;45.456;11.064;2023-02-08T01:36:09;11.10;;;5.90;;
68744;SDS011;66104;45.456;11.064;2023-02-08T01:38:43;9.20;;;5.40;;
68744;SDS011;66104;45.456;11.064;2023-02-08T01:41:18;10.90;;;6.40;;
68744;SDS011;66104;45.456;11.064;2023-02-08T01:44:02;11.00;;;5.60;;
68744;SDS011;66104;45.456;11.064;2023-02-08T01:46:39;10.30;;;6.00;;
68744;SDS011;66104;45.456;11.064;2023-02-08T01:49:17;9.30;;;5.30;;
68744;SDS011;66104;45.456;11.064;2023-02-08T01:51:56;10.50;;;5.60;;
68744;SDS011;66104;45.456;11.064;2023-02-08T01:54:37;8.60;;;5.50;;
68744;SDS011;66104;45.456;11.064;2023-02-08T01:57:15;8.70;;;5.30;;
68744;SDS011;66104;45.456;11.064;2023-02-08T01:59:53;9.90;;;5.90;;
68744;SDS011;66104;45.456;11.064;2023-02-08T02:02:29;11.30;;;6.40;;
68744;SDS011;66104;45.456;11.064;2023-02-08T02:05:03;11.90;;;6.10;;
68744;SDS011;66104;45.456;11.064;2023-02-08T02:07:39;11.90;;;6.50;;
68744;SDS011;66104;45.456;11.064;2023-02-08T02:10:15;9.90;;;6.30;;
68744;SDS011;66104;45.456;11.064;2023-02-08T02:12:52;15.70;;;6.70;;
68744;SDS011;66104;45.456;11.064;2023-02-08T02:15:26;11.40;;;6.30;;
68744;SDS011;66104;45.456;11.064;2023-02-08T02:18:00;10.90;;;6.40;;
68744;SDS011;66104;45.456;11.064;2023-02-08T02:27:18;10.20;;;6.00;;
68744;SDS011;66104;45.456;11.064;2023-02-08T02:30:40;9.90;;;6.10;;
68744;SDS011;66104;45.456;11.064;2023-02-08T02:33:56;10.00;;;5.70;;
68744;SDS011;66104;45.456;11.064;2023-02-08T02:36:41;9.80;;;5.90;;
68744;SDS011;66104;45.456;11.064;2023-02-08T02:39:24;11.40;;;5.90;;
68744;SDS011;66104;45.456;11.064;2023-02-08T02:42:09;10.70;;;5.90;;
68744;SDS011;66104;45.456;11.064;2023-02-08T02:45:11;11.80;;;6.50;;
68744;SDS011;66104;45.456;11.064;2023-02-08T02:47:57;12.10;;;7.10;;
68744;SDS011;66104;45.456;11.064;2023-02-08T02:50:39;11.60;;;6.20;;
68744;SDS011;66104;45.456;11.064;2023-02-08T02:53:18;10.60;;;6.00;;
68744;SDS011;66104;45.456;11.064;2023-02-08T02:55:59;10.70;;;5.80;;
68744;SDS011;66104;45.456;11.064;2023-02-08T02:58:37;10.00;;;5.70;;
68744;SDS011;66104;45.456;11.064;2023-02-08T03:01:14;12.30;;;6.50;;
68744;SDS011;66104;45.456;11.064;2023-02-08T03:03:55;10.70;;;5.70;;
68744;SDS011;66104;45.456;11.064;2023-02-08T03:06:37;11.80;;;6.50;;
68744;SDS011;66104;45.456;11.064;2023-02-08T03:09:43;10.90;;;5.80;;
68744;SDS011;66104;45.456;11.064;2023-02-08T03:12:32;12.00;;;5.60;;
68744;SDS011;66104;45.456;11.064;2023-02-08T03:15:22;8.30;;;4.80;;
68744;SDS011;66104;45.456;11.064;2023-02-08T03:18:16;7.00;;;4.00;;
68744;SDS011;66104;45.456;11.064;2023-02-08T03:21:04;11.60;;;6.40;;
68744;SDS011;66104;45.456;11.064;2023-02-08T03:23:44;11.50;;;6.20;;
68744;SDS011;66104;45.456;11.064;2023-02-08T03:26:33;12.80;;;6.40;;
68744;SDS011;66104;45.456;11.064;2023-02-08T03:29:18;8.50;;;5.00;;
68744;SDS011;66104;45.456;11.064;2023-02-08T03:32:01;8.00;;;4.80;;
68744;SDS011;66104;45.456;11.064;2023-02-08T03:34:42;9.90;;;5.90;;
68744;SDS011;66104;45.456;11.064;2023-02-08T03:37:22;11.50;;;6.50;;
68744;SDS011;66104;45.456;11.064;2023-02-08T03:40:00;11.00;;;6.20;;
68744;SDS011;66104;45.456;11.064;2023-02-08T03:42:37;12.40;;;6.70;;
68744;SDS011;66104;45.456;11.064;2023-02-08T03:45:16;11.00;;;6.00;;
68744;SDS011;66104;45.456;11.064;2023-02-08T03:47:55;11.60;;;6.30;;
68744;SDS011;66104;45.456;11.064;2023-02-08T03:50:37;9.80;;;5.40;;
68744;SDS011;66104;45.456;11.064;2023-02-08T03:53:16;8.60;;;5.30;;
68744;SDS011;66104;45.456;11.064;2023-02-08T03:55:57;9.20;;;5.30;;
68744;SDS011;66104;45.456;11.064;2023-02-08T03:58:37;11.80;;;6.10;;
68744;SDS011;66104;45.456;11.064;2023-02-08T04:01:17;11.10;;;6.10;;
68744;SDS011;66104;45.456;11.064;2023-02-08T04:03:55;13.70;;;6.30;;
68744;SDS011;66104;45.456;11.064;2023-02-08T04:06:30;9.10;;;5.30;;
68744;SDS011;66104;45.456;11.064;2023-02-08T04:09:04;8.10;;;4.70;;
68744;SDS011;66104;45.456;11.064;2023-02-08T04:11:39;10.10;;;5.70;;
68744;SDS011;66104;45.456;11.064;2023-02-08T04:14:12;10.30;;;5.70;;
68744;SDS011;66104;45.456;11.064;2023-02-08T04:16:46;8.30;;;5.10;;
68744;SDS011;66104;45.456;11.064;2023-02-08T04:19:20;10.50;;;5.80;;
68744;SDS011;66104;45.456;11.064;2023-02-08T04:21:52;9.20;;;5.20;;
68744;SDS011;66104;45.456;11.064;2023-02-08T04:24:27;12.90;;;6.40;;
68744;SDS011;66104;45.456;11.064;2023-02-08T04:27:00;11.70;;;5.50;;
68744;SDS011;66104;45.456;11.064;2023-02-08T04:29:35;9.80;;;5.80;;
68744;SDS011;66104;45.456;11.064;2023-02-08T04:32:08;12.10;;;6.20;;
68744;SDS011;66104;45.456;11.064;2023-02-08T04:34:42;12.00;;;6.10;;
68744;SDS011;66104;45.456;11.064;2023-02-08T04:37:16;10.10;;;5.50;;
68744;SDS011;66104;45.456;11.064;2023-02-08T04:39:49;11.40;;;5.30;;
68744;SDS011;66104;45.456;11.064;2023-02-08T04:42:22;10.30;;;5.50;;
68744;SDS011;66104;45.456;11.064;2023-02-08T04:44:56;7.80;;;4.60;;
68744;SDS011;66104;45.456;11.064;2023-02-08T04:47:29;6.90;;;3.90;;
68744;SDS011;66104;45.456;11.064;2023-02-08T04:50:02;7.90;;;4.50;;
68744;SDS011;66104;45.456;11.064;2023-02-08T04:52:37;7.80;;;4.50;;
68744;SDS011;66104;45.456;11.064;2023-02-08T04:55:10;8.90;;;4.60;;
68744;SDS011;66104;45.456;11.064;2023-02-08T04:57:43;8.10;;;4.50;;
68744;SDS011;66104;45.456;11.064;2023-02-08T05:00:19;8.70;;;4.80;;
68744;SDS011;66104;45.456;11.064;2023-02-08T05:02:55;9.10;;;5.40;;
68744;SDS011;66104;45.456;11.064;2023-02-08T05:05:29;9.00;;;5.10;;
68744;SDS011;66104;45.456;11.064;2023-02-08T05:08:03;10.40;;;5.10;;
68744;SDS011;66104;45.456;11.064;2023-02-08T05:10:37;11.90;;;4.80;;
68744;SDS011;66104;45.456;11.064;2023-02-08T05:13:15;9.20;;;4.80;;
68744;SDS011;66104;45.456;11.064;2023-02-08T05:15:49;7.70;;;3.90;;
68744;SDS011;66104;45.456;11.064;2023-02-08T05:18:22;12.60;;;5.80;;
68744;SDS011;66104;45.456;11.064;2023-02-08T05:20:59;8.90;;;4.60;;
68744;SDS011;66104;45.456;11.064;2023-02-08T05:23:34;10.60;;;5.80;;
68744;SDS011;66104;45.456;11.064;2023-02-08T05:26:09;13.70;;;5.70;;
68744;SDS011;66104;45.456;11.064;2023-02-08T05:28:41;10.70;;;5.10;;
68744;SDS011;66104;45.456;11.064;2023-02-08T05:31:16;10.00;;;5.50;;
68744;SDS011;66104;45.456;11.064;2023-02-08T05:33:52;11.80;;;6.00;;
68744;SDS011;66104;45.456;11.064;2023-02-08T05:36:26;10.20;;;5.40;;
68744;SDS011;66104;45.456;11.064;2023-02-08T05:39:00;15.80;;;7.60;;
68744;SDS011;66104;45.456;11.064;2023-02-08T05:41:32;11.50;;;6.30;;
68744;SDS011;66104;45.456;11.064;2023-02-08T05:44:07;10.70;;;5.60;;
68744;SDS011;66104;45.456;11.064;2023-02-08T05:46:40;9.50;;;5.40;;
68744;SDS011;66104;45.456;11.064;2023-02-08T05:49:14;10.20;;;5.70;;
68744;SDS011;66104;45.456;11.064;2023-02-08T05:51:47;10.70;;;5.70;;
68744;SDS011;66104;45.456;11.064;2023-02-08T05:54:19;10.80;;;5.10;;
68744;SDS011;66104;45.456;11.064;2023-02-08T05:56:53;9.60;;;5.20;;
68744;SDS011;66104;45.456;11.064;2023-02-08T05:59:27;14.40;;;5.70;;
68744;SDS011;66104;45.456;11.064;2023-02-08T06:02:01;13.90;;;6.20;;
68744;SDS011;66104;45.456;11.064;2023-02-08T06:04:35;11.70;;;5.90;;
68744;SDS011;66104;45.456;11.064;2023-02-08T06:07:08;11.70;;;5.50;;
68744;SDS011;66104;45.456;11.064;2023-02-08T06:09:40;9.50;;;5.10;;
68744;SDS011;66104;45.456;11.064;2023-02-08T06:12:17;9.70;;;5.30;;
68744;SDS011;66104;45.456;11.064;2023-02-08T06:14:50;11.90;;;6.00;;
68744;SDS011;66104;45.456;11.064;2023-02-08T06:17:23;16.00;;;6.60;;
68744;SDS011;66104;45.456;11.064;2023-02-08T06:19:58;10.90;;;6.40;;
68744;SDS011;66104;45.456;11.064;2023-02-08T06:22:32;12.00;;;6.20;;
68744;SDS011;66104;45.456;11.064;2023-02-08T06:25:08;9.70;;;6.00;;
68744;SDS011;66104;45.456;11.064;2023-02-08T06:27:41;11.90;;;6.00;;
68744;SDS011;66104;45.456;11.064;2023-02-08T06:30:16;12.20;;;5.70;;
68744;SDS011;66104;45.456;11.064;2023-02-08T06:32:50;10.90;;;5.70;;
68744;SDS011;66104;45.456;11.064;2023-02-08T06:35:23;10.50;;;6.30;;
68744;SDS011;66104;45.456;11.064;2023-02-08T06:37:57;10.80;;;5.90;;
68744;SDS011;66104;45.456;11.064;2023-02-08T06:40:31;9.40;;;5.30;;
68744;SDS011;66104;45.456;11.064;2023-02-08T06:43:05;11.30;;;6.10;;
68744;SDS011;66104;45.456;11.064;2023-02-08T06:45:38;9.20;;;5.10;;
68744;SDS011;66104;45.456;11.064;2023-02-08T06:48:12;10.80;;;5.90;;
68744;SDS011;66104;45.456;11.064;2023-02-08T06:50:45;11.80;;;6.60;;
68744;SDS011;66104;45.456;11.064;2023-02-08T06:53:18;9.90;;;5.60;;
68744;SDS011;66104;45.456;11.064;2023-02-08T06:55:52;11.30;;;5.90;;
68744;SDS011;66104;45.456;11.064;2023-02-08T06:58:25;9.10;;;5.30;;
68744;SDS011;66104;45.456;11.064;2023-02-08T07:00:58;12.60;;;6.40;;
68744;SDS011;66104;45.456;11.064;2023-02-08T07:03:32;10.50;;;6.10;;
68744;SDS011;66104;45.456;11.064;2023-02-08T07:06:05;10.60;;;5.60;;
68744;SDS011;66104;45.456;11.064;2023-02-08T07:08:45;11.60;;;7.00;;
68744;SDS011;66104;45.456;11.064;2023-02-08T07:11:19;12.80;;;6.70;;
68744;SDS011;66104;45.456;11.064;2023-02-08T07:13:52;18.40;;;8.40;;
68744;SDS011;66104;45.456;11.064;2023-02-08T07:16:25;18.00;;;9.10;;
68744;SDS011;66104;45.456;11.064;2023-02-08T07:18:58;19.60;;;9.40;;
68744;SDS011;66104;45.456;11.064;2023-02-08T07:21:33;15.90;;;7.50;;
68744;SDS011;66104;45.456;11.064;2023-02-08T07:24:07;20.70;;;9.30;;
68744;SDS011;66104;45.456;11.064;2023-02-08T07:26:41;15.50;;;7.50;;
68744;SDS011;66104;45.456;11.064;2023-02-08T07:29:15;13.70;;;6.40;;
68744;SDS011;66104;45.456;11.064;2023-02-08T07:31:48;14.30;;;6.40;;
68744;SDS011;66104;45.456;11.064;2023-02-08T07:34:21;12.20;;;6.10;;
68744;SDS011;66104;45.456;11.064;2023-02-08T07:36:55;14.00;;;6.40;;
68744;SDS011;66104;45.456;11.064;2023-02-08T07:39:28;14.60;;;5.60;;
68744;SDS011;66104;45.456;11.064;2023-02-08T07:42:01;11.00;;;6.50;;
68744;SDS011;66104;45.456;11.064;2023-02-08T07:44:38;11.10;;;6.60;;
68744;SDS011;66104;45.456;11.064;2023-02-08T07:47:11;12.00;;;6.50;;
68744;SDS011;66104;45.456;11.064;2023-02-08T07:49:45;10.30;;;5.40;;
68744;SDS011;66104;45.456;11.064;2023-02-08T07:52:18;12.50;;;6.10;;
68744;SDS011;66104;45.456;11.064;2023-02-08T07:54:51;15.60;;;7.10;;
68744;SDS011;66104;45.456;11.064;2023-02-08T07:57:25;17.40;;;7.60;;
68744;SDS011;66104;45.456;11.064;2023-02-08T07:59:58;20.70;;;10.40;;
68744;SDS011;66104;45.456;11.064;2023-02-08T08:02:40;12.90;;;7.00;;
68744;SDS011;66104;45.456;11.064;2023-02-08T08:05:13;13.40;;;7.20;;
68744;SDS011;66104;45.456;11.064;2023-02-08T08:07:46;16.00;;;8.30;;
68744;SDS011;66104;45.456;11.064;2023-02-08T08:10:20;16.70;;;8.20;;
68744;SDS011;66104;45.456;11.064;2023-02-08T08:12:53;14.80;;;7.60;;
68744;SDS011;66104;45.456;11.064;2023-02-08T08:15:27;15.10;;;8.50;;
68744;SDS011;66104;45.456;11.064;2023-02-08T08:18:02;13.10;;;7.10;;
68744;SDS011;66104;45.456;11.064;2023-02-08T08:20:36;13.70;;;7.40;;
68744;SDS011;66104;45.456;11.064;2023-02-08T08:23:10;12.90;;;6.40;;
68744;SDS011;66104;45.456;11.064;2023-02-08T08:25:45;12.50;;;6.50;;
68744;SDS011;66104;45.456;11.064;2023-02-08T08:28:18;12.60;;;6.80;;
68744;SDS011;66104;45.456;11.064;2023-02-08T08:30:51;12.30;;;6.50;;
68744;SDS011;66104;45.456;11.064;2023-02-08T08:33:25;12.10;;;6.40;;
68744;SDS011;66104;45.456;11.064;2023-02-08T08:35:58;11.70;;;6.20;;
68744;SDS011;66104;45.456;11.064;2023-02-08T08:38:31;10.80;;;6.50;;
68744;SDS011;66104;45.456;11.064;2023-02-08T08:41:09;12.40;;;7.00;;
68744;SDS011;66104;45.456;11.064;2023-02-08T08:43:43;9.80;;;6.00;;
68744;SDS011;66104;45.456;11.064;2023-02-08T08:46:16;12.70;;;6.40;;
68744;SDS011;66104;45.456;11.064;2023-02-08T08:48:49;19.60;;;7.90;;
68744;SDS011;66104;45.456;11.064;2023-02-08T08:51:22;12.80;;;7.20;;
68744;SDS011;66104;45.456;11.064;2023-02-08T08:53:56;10.80;;;5.90;;
68744;SDS011;66104;45.456;11.064;2023-02-08T08:56:30;16.30;;;7.10;;
68744;SDS011;66104;45.456;11.064;2023-02-08T08:59:03;13.70;;;6.80;;
68744;SDS011;66104;45.456;11.064;2023-02-08T09:01:36;13.70;;;7.30;;
68744;SDS011;66104;45.456;11.064;2023-02-08T09:04:09;12.40;;;7.00;;
68744;SDS011;66104;45.456;11.064;2023-02-08T09:06:44;13.70;;;7.30;;
68744;SDS011;66104;45.456;11.064;2023-02-08T09:09:17;15.00;;;8.10;;
68744;SDS011;66104;45.456;11.064;2023-02-08T09:11:51;14.20;;;7.20;;
68744;SDS011;66104;45.456;11.064;2023-02-08T09:14:25;12.80;;;8.40;;
68744;SDS011;66104;45.456;11.064;2023-02-08T09:16:59;13.30;;;8.40;;
68744;SDS011;66104;45.456;11.064;2023-02-08T09:19:32;13.80;;;8.00;;
68744;SDS011;66104;45.456;11.064;2023-02-08T09:22:10;11.40;;;7.30;;
68744;SDS011;66104;45.456;11.064;2023-02-08T09:24:43;13.90;;;7.40;;
68744;SDS011;66104;45.456;11.064;2023-02-08T09:27:16;11.70;;;6.90;;
68744;SDS011;66104;45.456;11.064;2023-02-08T09:29:49;12.20;;;7.40;;
68744;SDS011;66104;45.456;11.064;2023-02-08T09:32:22;13.80;;;7.90;;
68744;SDS011;66104;45.456;11.064;2023-02-08T09:34:55;12.50;;;7.40;;
68744;SDS011;66104;45.456;11.064;2023-02-08T09:37:28;16.10;;;9.00;;
68744;SDS011;66104;45.456;11.064;2023-02-08T09:40:01;20.30;;;9.60;;
68744;SDS011;66104;45.456;11.064;2023-02-08T09:42:41;15.40;;;8.40;;
68744;SDS011;66104;45.456;11.064;2023-02-08T09:45:28;13.80;;;8.00;;
68744;SDS011;66104;45.456;11.064;2023-02-08T09:48:30;14.60;;;9.10;;
68744;SDS011;66104;45.456;11.064;2023-02-08T09:51:13;14.50;;;8.40;;
68744;SDS011;66104;45.456;11.064;2023-02-08T09:53:54;14.60;;;7.20;;
68744;SDS011;66104;45.456;11.064;2023-02-08T09:56:34;13.80;;;8.20;;
68744;SDS011;66104;45.456;11.064;2023-02-08T09:59:14;14.20;;;8.90;;
68744;SDS011;66104;45.456;11.064;2023-02-08T10:01:52;15.00;;;7.90;;
68744;SDS011;66104;45.456;11.064;2023-02-08T10:04:39;14.90;;;8.50;;
68744;SDS011;66104;45.456;11.064;2023-02-08T10:07:18;16.10;;;9.10;;
68744;SDS011;66104;45.456;11.064;2023-02-08T10:09:51;16.20;;;9.50;;
68744;SDS011;66104;45.456;11.064;2023-02-08T10:12:34;14.90;;;8.50;;
68744;SDS011;66104;45.456;11.064;2023-02-08T10:15:24;13.20;;;7.60;;
68744;SDS011;66104;45.456;11.064;2023-02-08T10:18:17;18.00;;;9.30;;
68744;SDS011;66104;45.456;11.064;2023-02-08T10:24:30;15.90;;;7.80;;
68744;SDS011;66104;45.456;11.064;2023-02-08T10:27:25;16.50;;;9.20;;
68744;SDS011;66104;45.456;11.064;2023-02-08T10:30:27;15.00;;;8.60;;
68744;SDS011;66104;45.456;11.064;2023-02-08T10:33:14;15.20;;;9.30;;
68744;SDS011;66104;45.456;11.064;2023-02-08T10:35:54;18.00;;;10.30;;
68744;SDS011;66104;45.456;11.064;2023-02-08T10:38:28;17.50;;;9.70;;
68744;SDS011;66104;45.456;11.064;2023-02-08T10:41:19;16.50;;;10.10;;
68744;SDS011;66104;45.456;11.064;2023-02-08T10:44:02;20.00;;;10.10;;
68744;SDS011;66104;45.456;11.064;2023-02-08T10:46:46;16.30;;;9.30;;
68744;SDS011;66104;45.456;11.064;2023-02-08T10:49:35;12.80;;;6.80;;
68744;SDS011;66104;45.456;11.064;2023-02-08T10:52:12;12.40;;;6.60;;
68744;SDS011;66104;45.456;11.064;2023-02-08T10:54:46;15.70;;;9.50;;
68744;SDS011;66104;45.456;11.064;2023-02-08T10:57:22;12.20;;;7.40;;
68744;SDS011;66104;45.456;11.064;2023-02-08T11:00:02;17.60;;;9.10;;
68744;SDS011;66104;45.456;11.064;2023-02-08T11:02:40;17.30;;;9.50;;
68744;SDS011;66104;45.456;11.064;2023-02-08T11:05:17;19.40;;;9.70;;
68744;SDS011;66104;45.456;11.064;2023-02-08T11:08:09;19.10;;;10.70;;
68744;SDS011;66104;45.456;11.064;2023-02-08T11:10:53;13.60;;;7.60;;
68744;SDS011;66104;45.456;11.064;2023-02-08T11:13:33;18.70;;;10.40;;
68744;SDS011;66104;45.456;11.064;2023-02-08T11:16:11;16.50;;;9.10;;
68744;SDS011;66104;45.456;11.064;2023-02-08T11:18:52;18.90;;;9.90;;
68744;SDS011;66104;45.456;11.064;2023-02-08T11:21:28;13.80;;;8.40;;
68744;SDS011;66104;45.456;11.064;2023-02-08T11:24:16;17.30;;;10.00;;
68744;SDS011;66104;45.456;11.064;2023-02-08T11:26:56;13.60;;;8.50;;
68744;SDS011;66104;45.456;11.064;2023-02-08T11:29:31;15.50;;;9.10;;
68744;SDS011;66104;45.456;11.064;2023-02-08T11:32:15;15.30;;;9.20;;
68744;SDS011;66104;45.456;11.064;2023-02-08T11:34:49;17.00;;;10.60;;
68744;SDS011;66104;45.456;11.064;2023-02-08T11:37:23;15.50;;;9.30;;
68744;SDS011;66104;45.456;11.064;2023-02-08T11:39:59;18.70;;;10.70;;
68744;SDS011;66104;45.456;11.064;2023-02-08T11:42:39;16.10;;;9.80;;
68744;SDS011;66104;45.456;11.064;2023-02-08T11:45:20;14.40;;;8.60;;
68744;SDS011;66104;45.456;11.064;2023-02-08T11:47:56;11.40;;;7.00;;
68744;SDS011;66104;45.456;11.064;2023-02-08T11:50:33;18.50;;;10.70;;
68744;SDS011;66104;45.456;11.064;2023-02-08T11:53:24;17.20;;;9.50;;
68744;SDS011;66104;45.456;11.064;2023-02-08T11:56:13;18.80;;;10.50;;
68744;SDS011;66104;45.456;11.064;2023-02-08T11:59:22;18.70;;;11.20;;
68744;SDS011;66104;45.456;11.064;2023-02-08T12:01:57;16.30;;;10.20;;
68744;SDS011;66104;45.456;11.064;2023-02-08T12:04:47;16.60;;;8.00;;
68744;SDS011;66104;45.456;11.064;2023-02-08T12:07:27;19.20;;;10.70;;
68744;SDS011;66104;45.456;11.064;2023-02-08T12:10:39;16.00;;;8.90;;
68744;SDS011;66104;45.456;11.064;2023-02-08T12:23:27;17.60;;;10.40;;
68744;SDS011;66104;45.456;11.064;2023-02-08T12:26:21;13.90;;;8.50;;
68744;SDS011;66104;45.456;11.064;2023-02-08T12:29:10;17.20;;;9.50;;
68744;SDS011;66104;45.456;11.064;2023-02-08T12:32:05;17.10;;;9.40;;
68744;SDS011;66104;45.456;11.064;2023-02-08T12:38:25;19.90;;;10.70;;
68744;SDS011;66104;45.456;11.064;2023-02-08T12:45:08;15.30;;;8.90;;
68744;SDS011;66104;45.456;11.064;2023-02-08T12:48:08;17.70;;;10.10;;
68744;SDS011;66104;45.456;11.064;2023-02-08T12:50:54;20.30;;;11.70;;
68744;SDS011;66104;45.456;11.064;2023-02-08T12:53:34;22.80;;;13.40;;
68744;SDS011;66104;45.456;11.064;2023-02-08T12:56:14;28.50;;;14.90;;
68744;SDS011;66104;45.456;11.064;2023-02-08T12:58:51;31.50;;;15.50;;
68744;SDS011;66104;45.456;11.064;2023-02-08T13:01:43;44.70;;;22.60;;
68744;SDS011;66104;45.456;11.064;2023-02-08T13:04:25;44.90;;;21.50;;
68744;SDS011;66104;45.456;11.064;2023-02-08T13:07:07;43.10;;;22.90;;
68744;SDS011;66104;45.456;11.064;2023-02-08T13:09:49;37.80;;;19.70;;
68744;SDS011;66104;45.456;11.064;2023-02-08T13:12:28;34.10;;;18.70;;
68744;SDS011;66104;45.456;11.064;2023-02-08T13:15:07;33.10;;;17.20;;
68744;SDS011;66104;45.456;11.064;2023-02-08T13:18:00;25.20;;;15.00;;
68744;SDS011;66104;45.456;11.064;2023-02-08T13:20:42;22.90;;;14.90;;
68744;SDS011;66104;45.456;11.064;2023-02-08T13:23:24;23.20;;;14.40;;
68744;SDS011;66104;45.456;11.064;2023-02-08T13:26:07;20.70;;;12.90;;
68744;SDS011;66104;45.456;11.064;2023-02-08T13:28:48;18.20;;;11.40;;
68744;SDS011;66104;45.456;11.064;2023-02-08T13:31:24;19.50;;;10.80;;
68744;SDS011;66104;45.456;11.064;2023-02-08T13:34:03;17.20;;;10.50;;
68744;SDS011;66104;45.456;11.064;2023-02-08T13:36:50;13.40;;;8.30;;
68744;SDS011;66104;45.456;11.064;2023-02-08T13:39:35;15.80;;;9.00;;
68744;SDS011;66104;45.456;11.064;2023-02-08T13:42:21;15.70;;;9.10;;
68744;SDS011;66104;45.456;11.064;2023-02-08T13:45:01;16.50;;;9.70;;
68744;SDS011;66104;45.456;11.064;2023-02-08T13:47:41;14.30;;;8.90;;
68744;SDS011;66104;45.456;11.064;2023-02-08T13:50:50;14.40;;;8.20;;
68744;SDS011;66104;45.456;11.064;2023-02-08T13:56:43;13.10;;;8.20;;
68744;SDS011;66104;45.456;11.064;2023-02-08T13:59:38;14.90;;;7.90;;
68744;SDS011;66104;45.456;11.064;2023-02-08T14:05:32;15.00;;;9.50;;
68744;SDS011;66104;45.456;11.064;2023-02-08T14:08:21;12.40;;;6.40;;
68744;SDS011;66104;45.456;11.064;2023-02-08T14:11:13;21.20;;;9.20;;
68744;SDS011;66104;45.456;11.064;2023-02-08T14:13:53;16.40;;;9.80;;
68744;SDS011;66104;45.456;11.064;2023-02-08T14:16:31;17.80;;;10.40;;
68744;SDS011;66104;45.456;11.064;2023-02-08T14:19:19;19.40;;;11.00;;
68744;SDS011;66104;45.456;11.064;2023-02-08T14:22:02;20.00;;;10.80;;
68744;SDS011;66104;45.456;11.064;2023-02-08T14:24:40;16.70;;;9.50;;
68744;SDS011;66104;45.456;11.064;2023-02-08T14:27:21;19.20;;;10.80;;
68744;SDS011;66104;45.456;11.064;2023-02-08T14:30:00;20.10;;;11.00;;
68744;SDS011;66104;45.456;11.064;2023-02-08T14:32:40;20.60;;;11.20;;
68744;SDS011;66104;45.456;11.064;2023-02-08T14:35:21;19.30;;;9.30;;
68744;SDS011;66104;45.456;11.064;2023-02-08T14:41:52;19.40;;;9.90;;
68744;SDS011;66104;45.456;11.064;2023-02-08T14:45:01;18.70;;;10.80;;
68744;SDS011;66104;45.456;11.064;2023-02-08T14:48:05;17.90;;;9.90;;
68744;SDS011;66104;45.456;11.064;2023-02-08T14:50:58;17.80;;;9.40;;
68744;SDS011;66104;45.456;11.064;2023-02-08T14:53:47;14.20;;;8.00;;
68744;SDS011;66104;45.456;11.064;2023-02-08T14:56:24;12.00;;;6.90;;
68744;SDS011;66104;45.456;11.064;2023-02-08T14:59:01;17.20;;;9.90;;
68744;SDS011;66104;45.456;11.064;2023-02-08T15:01:42;21.20;;;12.00;;
68744;SDS011;66104;45.456;11.064;2023-02-08T15:04:17;17.80;;;8.90;;
68744;SDS011;66104;45.456;11.064;2023-02-08T15:07:16;16.80;;;9.60;;
68744;SDS011;66104;45.456;11.064;2023-02-08T15:09:57;14.60;;;7.60;;
68744;SDS011;66104;45.456;11.064;2023-02-08T15:12:36;23.80;;;9.70;;
68744;SDS011;66104;45.456;11.064;2023-02-08T15:15:22;17.70;;;10.30;;
68744;SDS011;66104;45.456;11.064;2023-02-08T15:18:02;17.70;;;10.40;;
68744;SDS011;66104;45.456;11.064;2023-02-08T15:20:59;18.40;;;11.00;;
68744;SDS011;66104;45.456;11.064;2023-02-08T15:23:34;20.00;;;10.80;;
68744;SDS011;66104;45.456;11.064;2023-02-08T15:26:21;19.60;;;9.70;;
68744;SDS011;66104;45.456;11.064;2023-02-08T15:28:53;19.80;;;10.60;;
68744;SDS011;66104;45.456;11.064;2023-02-08T15:31:32;18.10;;;10.40;;
68744;SDS011;66104;45.456;11.064;2023-02-08T15:34:08;17.70;;;10.00;;
68744;SDS011;66104;45.456;11.064;2023-02-08T15:36:47;17.40;;;9.90;;
68744;SDS011;66104;45.456;11.064;2023-02-08T15:39:32;20.20;;;10.50;;
68744;SDS011;66104;45.456;11.064;2023-02-08T15:42:16;19.30;;;10.50;;
68744;SDS011;66104;45.456;11.064;2023-02-08T15:44:51;15.50;;;9.10;;
68744;SDS011;66104;45.456;11.064;2023-02-08T15:47:26;18.70;;;10.40;;
68744;SDS011;66104;45.456;11.064;2023-02-08T15:50:01;18.70;;;9.80;;
68744;SDS011;66104;45.456;11.064;2023-02-08T15:52:36;20.60;;;9.60;;
68744;SDS011;66104;45.456;11.064;2023-02-08T15:55:17;16.10;;;8.70;;
68744;SDS011;66104;45.456;11.064;2023-02-08T15:57:58;19.50;;;10.00;;
68744;SDS011;66104;45.456;11.064;2023-02-08T16:00:36;15.40;;;8.50;;
68744;SDS011;66104;45.456;11.064;2023-02-08T16:03:19;12.40;;;7.50;;
68744;SDS011;66104;45.456;11.064;2023-02-08T16:05:56;16.30;;;8.70;;
68744;SDS011;66104;45.456;11.064;2023-02-08T16:08:33;16.80;;;8.60;;
68744;SDS011;66104;45.456;11.064;2023-02-08T16:11:12;17.60;;;10.10;;